A- A+ FrançaisEnglishEspañol中国

Services sur Internet Soldes sur Internet Des idées de cadeaux Météo Météo aéro

La météo à : Autours de vous Biarritz-Bayonne-Anglet Pau-PyrénéesTarbes-Lourdes-PyrénéesSt-Nazaire-Montoir

carte TEMSI

Pour illustration, la carte TEMSI n'est pas mise à jour

La météo aéronautique pour les pilotes, la préparation du vol avec les METAR (METeorological Aerodrome Report, message d'observation des conditions météorologiques pour l'aviation) et Les TAF (Terminal Aerodrome Forecast : message de prévision à court terme des conditions météorologiques pour l'aviation). Et les autres ressources comme les VAC (Visual Approch Chart) et les NOTAM (Notice To Airman) pour préprer les vols.

Aéroport Dortmund Wickede (Allemagne) / OACI EDLW/ IATA DTM

L'altitude de l'aéroport Dortmund Wickede est de 130 m = 427 ft. Il est situé à proximité de Dortmund (Allemagne). La météo générale à 5 jours est disponible pour Holzwickede situé à 1.6 km.

METAR de l'aéroport Dortmund Wickede - EDLW

EDLW 101520Z 18009KT CAVOK 04/01 Q1020

Décodage du METAR de l'aéroport Dortmund Wickede (DE)

METAR émis par EDLW le mardi 10 décembre 2019 à 15:20 heure TU, il y a 18 minutes.

La visibilité est de supérieure à 10 km = supérieure à 6.2 sm.

La température est de 4°C = 39 °F et le point rosée est de 1°C = 34 °F . Ce qui correspond à 81% d'humidité relative.

Le QNH est de 1020 hPa = 30.12 inHg

Vent de 9 kt = 17 km/h, orienté à 180°.

Pas de nuages.

TAF de l'aéroport Dortmund Wickede - EDLW

EDLW 210500Z 2106/2206 VRB03KT 8000 NSC TEMPO 2106/2109 2000 BCFG PROB30 TEMPO 2106/2108 0500 FZFG BKN001 BECMG 2106/2109 09005KT BECMG 2116/2119 16006KT

EDLW 210500Z 2106/2206 VRB03KT 8000 NSC temporairement 2106/2109 2000 BCFG probabilité de 30% d'avoir temporairement 2106/2108 0500 FZFG couverture nuageuse fragmentée à 001 devenant 2106/2109 09005KT devenant 2116/2119 16006KT

Aéroport à proximité de Dortmund Wickede

Météo générale à 5 jours à Holzwickede (1.6 km)Aéroport Arnsberg (20 km)Aéroport Altena Hegenscheid (24 km)Aéroport Hamm Lippewiesen (24 km)Aéroport Werdohl Kuentrop (28 km)Aéroport Marl Loemuehle (34 km)Aéroport Borkenberge (37 km)

VAC de l'aéroport Dortmund Wickede - EDLW

La carte d'approche à vue (VAC Visual Approah Chart) est fournie sans aucune garantie de son actualité. Le pilote est le seul responsable de la vérification de sa validité avant de l'utiliser opérationnellement pour préparer un vol ou l'utiliser lors de sa navigation.

VAC de EDLW

Vue aérienne de l'aéroport Dortmund Wickede

NOTAM de l'aéroport Dortmund Wickede

Les NOTAM sont fournis sans aucune garantie de leur actualité. Le pilote est le seul responsable de la vérification de sa validité avant de l'utiliser opérationnellement pour préparer un vol ou l'utiliser lors de sa navigation.

Pas de NOTAM

Sources des données